sensor_id;sensor_type;location;lat;lon;timestamp;P1;durP1;ratioP1;P2;durP2;ratioP2
60588;SDS011;46421;48.610;9.334;2024-03-02T00:00:54;10.50;;;4.05;;
60588;SDS011;46421;48.610;9.334;2024-03-02T00:03:19;11.50;;;4.33;;
60588;SDS011;46421;48.610;9.334;2024-03-02T00:05:48;10.55;;;4.75;;
60588;SDS011;46421;48.610;9.334;2024-03-02T00:08:15;14.18;;;5.63;;
60588;SDS011;46421;48.610;9.334;2024-03-02T00:10:47;10.60;;;4.13;;
60588;SDS011;46421;48.610;9.334;2024-03-02T00:13:13;12.55;;;5.32;;
60588;SDS011;46421;48.610;9.334;2024-03-02T00:15:52;12.60;;;4.55;;
60588;SDS011;46421;48.610;9.334;2024-03-02T00:18:31;12.70;;;4.93;;
60588;SDS011;46421;48.610;9.334;2024-03-02T00:20:58;9.60;;;4.47;;
60588;SDS011;46421;48.610;9.334;2024-03-02T00:23:24;14.48;;;5.18;;
60588;SDS011;46421;48.610;9.334;2024-03-02T00:25:53;13.82;;;5.30;;
60588;SDS011;46421;48.610;9.334;2024-03-02T00:30:54;11.73;;;5.43;;
60588;SDS011;46421;48.610;9.334;2024-03-02T00:33:22;12.57;;;4.75;;
60588;SDS011;46421;48.610;9.334;2024-03-02T00:35:48;9.05;;;4.65;;
60588;SDS011;46421;48.610;9.334;2024-03-02T00:38:14;11.70;;;5.07;;
60588;SDS011;46421;48.610;9.334;2024-03-02T00:40:43;11.20;;;4.60;;
60588;SDS011;46421;48.610;9.334;2024-03-02T00:43:37;9.50;;;4.07;;
60588;SDS011;46421;48.610;9.334;2024-03-02T00:46:07;10.93;;;4.03;;
60588;SDS011;46421;48.610;9.334;2024-03-02T00:48:33;11.75;;;4.20;;
60588;SDS011;46421;48.610;9.334;2024-03-02T00:51:01;8.18;;;3.42;;
60588;SDS011;46421;48.610;9.334;2024-03-02T00:53:28;10.90;;;4.32;;
60588;SDS011;46421;48.610;9.334;2024-03-02T00:55:54;11.15;;;4.22;;
60588;SDS011;46421;48.610;9.334;2024-03-02T00:58:20;10.70;;;3.78;;
60588;SDS011;46421;48.610;9.334;2024-03-02T01:00:46;9.32;;;4.13;;
60588;SDS011;46421;48.610;9.334;2024-03-02T01:03:11;9.57;;;3.63;;
60588;SDS011;46421;48.610;9.334;2024-03-02T01:05:41;9.20;;;3.95;;
60588;SDS011;46421;48.610;9.334;2024-03-02T01:08:07;9.77;;;3.50;;
60588;SDS011;46421;48.610;9.334;2024-03-02T01:10:32;10.18;;;3.65;;
60588;SDS011;46421;48.610;9.334;2024-03-02T01:12:58;8.43;;;3.30;;
60588;SDS011;46421;48.610;9.334;2024-03-02T01:15:23;8.57;;;4.07;;
60588;SDS011;46421;48.610;9.334;2024-03-02T01:17:49;11.13;;;3.88;;
60588;SDS011;46421;48.610;9.334;2024-03-02T01:20:14;10.25;;;3.85;;
60588;SDS011;46421;48.610;9.334;2024-03-02T01:22:40;10.77;;;3.40;;
60588;SDS011;46421;48.610;9.334;2024-03-02T01:25:05;9.65;;;3.58;;
60588;SDS011;46421;48.610;9.334;2024-03-02T01:27:31;9.43;;;3.90;;
60588;SDS011;46421;48.610;9.334;2024-03-02T01:29:56;11.25;;;4.13;;
60588;SDS011;46421;48.610;9.334;2024-03-02T01:32:22;11.18;;;4.10;;
60588;SDS011;46421;48.610;9.334;2024-03-02T01:34:47;9.63;;;4.07;;
60588;SDS011;46421;48.610;9.334;2024-03-02T01:37:12;10.50;;;4.03;;
60588;SDS011;46421;48.610;9.334;2024-03-02T01:39:38;10.85;;;4.10;;
60588;SDS011;46421;48.610;9.334;2024-03-02T01:42:04;8.38;;;3.85;;
60588;SDS011;46421;48.610;9.334;2024-03-02T01:44:29;8.55;;;3.58;;
60588;SDS011;46421;48.610;9.334;2024-03-02T01:46:54;10.00;;;3.93;;
60588;SDS011;46421;48.610;9.334;2024-03-02T01:49:20;10.57;;;4.40;;
60588;SDS011;46421;48.610;9.334;2024-03-02T01:51:45;11.23;;;4.63;;
60588;SDS011;46421;48.610;9.334;2024-03-02T01:54:11;10.27;;;4.05;;
60588;SDS011;46421;48.610;9.334;2024-03-02T01:56:36;12.30;;;4.45;;
60588;SDS011;46421;48.610;9.334;2024-03-02T01:59:02;8.73;;;3.78;;
60588;SDS011;46421;48.610;9.334;2024-03-02T02:01:28;11.55;;;4.03;;
60588;SDS011;46421;48.610;9.334;2024-03-02T02:03:53;10.53;;;3.93;;
60588;SDS011;46421;48.610;9.334;2024-03-02T02:06:19;10.73;;;4.57;;
60588;SDS011;46421;48.610;9.334;2024-03-02T02:08:44;15.75;;;5.35;;
60588;SDS011;46421;48.610;9.334;2024-03-02T02:11:10;11.75;;;3.78;;
60588;SDS011;46421;48.610;9.334;2024-03-02T02:13:35;11.30;;;4.65;;
60588;SDS011;46421;48.610;9.334;2024-03-02T02:16:05;9.47;;;4.13;;
60588;SDS011;46421;48.610;9.334;2024-03-02T02:18:31;8.20;;;3.47;;
60588;SDS011;46421;48.610;9.334;2024-03-02T02:20:57;9.27;;;4.00;;
60588;SDS011;46421;48.610;9.334;2024-03-02T02:23:23;12.63;;;3.93;;
60588;SDS011;46421;48.610;9.334;2024-03-02T02:25:48;10.80;;;4.30;;
60588;SDS011;46421;48.610;9.334;2024-03-02T02:28:13;10.27;;;3.80;;
60588;SDS011;46421;48.610;9.334;2024-03-02T02:30:39;12.23;;;4.47;;
60588;SDS011;46421;48.610;9.334;2024-03-02T02:33:04;10.25;;;4.53;;
60588;SDS011;46421;48.610;9.334;2024-03-02T02:35:29;10.40;;;4.38;;
60588;SDS011;46421;48.610;9.334;2024-03-02T02:37:55;13.05;;;4.68;;
60588;SDS011;46421;48.610;9.334;2024-03-02T02:40:22;12.45;;;4.38;;
60588;SDS011;46421;48.610;9.334;2024-03-02T02:42:47;13.18;;;4.85;;
60588;SDS011;46421;48.610;9.334;2024-03-02T02:45:13;11.77;;;4.50;;
60588;SDS011;46421;48.610;9.334;2024-03-02T02:47:40;12.23;;;4.85;;
60588;SDS011;46421;48.610;9.334;2024-03-02T02:50:09;14.77;;;5.10;;
60588;SDS011;46421;48.610;9.334;2024-03-02T02:52:36;11.93;;;4.85;;
60588;SDS011;46421;48.610;9.334;2024-03-02T02:55:04;11.15;;;3.92;;
60588;SDS011;46421;48.610;9.334;2024-03-02T02:57:31;12.98;;;4.30;;
60588;SDS011;46421;48.610;9.334;2024-03-02T03:00:00;11.60;;;5.22;;
60588;SDS011;46421;48.610;9.334;2024-03-02T03:02:30;14.35;;;4.70;;
60588;SDS011;46421;48.610;9.334;2024-03-02T03:04:56;13.20;;;5.13;;
60588;SDS011;46421;48.610;9.334;2024-03-02T03:07:22;12.40;;;4.18;;
60588;SDS011;46421;48.610;9.334;2024-03-02T03:09:48;12.85;;;4.93;;
60588;SDS011;46421;48.610;9.334;2024-03-02T03:12:13;10.27;;;3.67;;
60588;SDS011;46421;48.610;9.334;2024-03-02T03:14:40;9.98;;;4.25;;
60588;SDS011;46421;48.610;9.334;2024-03-02T03:17:06;11.40;;;4.22;;
60588;SDS011;46421;48.610;9.334;2024-03-02T03:19:32;11.30;;;4.35;;
60588;SDS011;46421;48.610;9.334;2024-03-02T03:21:57;10.63;;;4.67;;
60588;SDS011;46421;48.610;9.334;2024-03-02T03:24:22;10.73;;;4.37;;
60588;SDS011;46421;48.610;9.334;2024-03-02T03:26:48;10.88;;;3.75;;
60588;SDS011;46421;48.610;9.334;2024-03-02T03:29:13;10.32;;;3.90;;
60588;SDS011;46421;48.610;9.334;2024-03-02T03:31:39;12.23;;;4.30;;
60588;SDS011;46421;48.610;9.334;2024-03-02T03:34:04;10.83;;;3.43;;
60588;SDS011;46421;48.610;9.334;2024-03-02T03:36:29;10.63;;;4.35;;
60588;SDS011;46421;48.610;9.334;2024-03-02T03:38:55;11.27;;;4.18;;
60588;SDS011;46421;48.610;9.334;2024-03-02T03:41:20;10.63;;;3.83;;
60588;SDS011;46421;48.610;9.334;2024-03-02T03:43:45;9.63;;;3.57;;
60588;SDS011;46421;48.610;9.334;2024-03-02T03:46:11;9.23;;;3.50;;
60588;SDS011;46421;48.610;9.334;2024-03-02T03:48:36;9.13;;;4.20;;
60588;SDS011;46421;48.610;9.334;2024-03-02T03:51:02;10.50;;;4.20;;
60588;SDS011;46421;48.610;9.334;2024-03-02T03:53:27;10.18;;;4.15;;
60588;SDS011;46421;48.610;9.334;2024-03-02T03:55:52;9.63;;;3.37;;
60588;SDS011;46421;48.610;9.334;2024-03-02T03:58:18;10.77;;;3.53;;
60588;SDS011;46421;48.610;9.334;2024-03-02T04:00:45;11.10;;;3.80;;
60588;SDS011;46421;48.610;9.334;2024-03-02T04:03:11;10.52;;;3.80;;
60588;SDS011;46421;48.610;9.334;2024-03-02T04:05:36;10.98;;;4.07;;
60588;SDS011;46421;48.610;9.334;2024-03-02T04:08:03;11.40;;;4.38;;
60588;SDS011;46421;48.610;9.334;2024-03-02T04:10:29;9.98;;;4.00;;
60588;SDS011;46421;48.610;9.334;2024-03-02T04:12:55;10.25;;;3.85;;
60588;SDS011;46421;48.610;9.334;2024-03-02T04:15:20;11.95;;;4.28;;
60588;SDS011;46421;48.610;9.334;2024-03-02T04:17:48;10.68;;;3.97;;
60588;SDS011;46421;48.610;9.334;2024-03-02T04:20:13;10.07;;;3.38;;
60588;SDS011;46421;48.610;9.334;2024-03-02T04:22:39;12.98;;;4.68;;
60588;SDS011;46421;48.610;9.334;2024-03-02T04:25:04;12.50;;;4.22;;
60588;SDS011;46421;48.610;9.334;2024-03-02T04:27:30;13.90;;;4.18;;
60588;SDS011;46421;48.610;9.334;2024-03-02T04:29:57;10.10;;;4.15;;
60588;SDS011;46421;48.610;9.334;2024-03-02T04:32:23;10.60;;;4.13;;
60588;SDS011;46421;48.610;9.334;2024-03-02T04:34:48;11.73;;;3.92;;
60588;SDS011;46421;48.610;9.334;2024-03-02T04:37:13;13.07;;;5.13;;
60588;SDS011;46421;48.610;9.334;2024-03-02T04:39:39;11.50;;;3.67;;
60588;SDS011;46421;48.610;9.334;2024-03-02T04:42:05;10.20;;;4.13;;
60588;SDS011;46421;48.610;9.334;2024-03-02T04:44:30;11.10;;;4.45;;
60588;SDS011;46421;48.610;9.334;2024-03-02T04:46:55;10.17;;;3.93;;
60588;SDS011;46421;48.610;9.334;2024-03-02T04:49:21;10.60;;;3.97;;
60588;SDS011;46421;48.610;9.334;2024-03-02T04:51:46;14.10;;;4.30;;
60588;SDS011;46421;48.610;9.334;2024-03-02T04:54:12;11.23;;;4.32;;
60588;SDS011;46421;48.610;9.334;2024-03-02T04:56:39;11.73;;;4.00;;
60588;SDS011;46421;48.610;9.334;2024-03-02T04:59:14;12.05;;;4.18;;
60588;SDS011;46421;48.610;9.334;2024-03-02T05:01:40;11.23;;;4.07;;
60588;SDS011;46421;48.610;9.334;2024-03-02T05:04:05;12.90;;;3.60;;
60588;SDS011;46421;48.610;9.334;2024-03-02T05:06:31;12.67;;;3.80;;
60588;SDS011;46421;48.610;9.334;2024-03-02T05:08:59;12.00;;;4.07;;
60588;SDS011;46421;48.610;9.334;2024-03-02T05:11:24;9.10;;;3.30;;
60588;SDS011;46421;48.610;9.334;2024-03-02T05:14:02;8.75;;;3.80;;
60588;SDS011;46421;48.610;9.334;2024-03-02T05:16:27;8.32;;;3.88;;
60588;SDS011;46421;48.610;9.334;2024-03-02T05:18:52;9.27;;;3.10;;
60588;SDS011;46421;48.610;9.334;2024-03-02T05:21:18;11.00;;;3.80;;
60588;SDS011;46421;48.610;9.334;2024-03-02T05:23:43;9.23;;;3.90;;
60588;SDS011;46421;48.610;9.334;2024-03-02T05:26:09;13.82;;;4.63;;
60588;SDS011;46421;48.610;9.334;2024-03-02T05:28:37;11.43;;;4.00;;
60588;SDS011;46421;48.610;9.334;2024-03-02T05:31:03;10.40;;;4.03;;
60588;SDS011;46421;48.610;9.334;2024-03-02T05:33:29;10.65;;;4.40;;
60588;SDS011;46421;48.610;9.334;2024-03-02T05:38:21;12.10;;;3.50;;
60588;SDS011;46421;48.610;9.334;2024-03-02T05:40:47;10.18;;;4.13;;
60588;SDS011;46421;48.610;9.334;2024-03-02T05:43:12;9.60;;;4.00;;
60588;SDS011;46421;48.610;9.334;2024-03-02T05:45:37;9.68;;;3.58;;
60588;SDS011;46421;48.610;9.334;2024-03-02T05:48:03;14.07;;;4.78;;
60588;SDS011;46421;48.610;9.334;2024-03-02T05:50:28;9.27;;;3.42;;
60588;SDS011;46421;48.610;9.334;2024-03-02T05:52:54;7.95;;;3.08;;
60588;SDS011;46421;48.610;9.334;2024-03-02T05:55:21;14.68;;;3.42;;
60588;SDS011;46421;48.610;9.334;2024-03-02T05:57:47;10.07;;;3.67;;
60588;SDS011;46421;48.610;9.334;2024-03-02T06:00:24;12.30;;;3.80;;
60588;SDS011;46421;48.610;9.334;2024-03-02T06:02:49;13.80;;;3.63;;
60588;SDS011;46421;48.610;9.334;2024-03-02T06:05:18;10.13;;;2.55;;
60588;SDS011;46421;48.610;9.334;2024-03-02T06:07:43;11.75;;;3.55;;
60588;SDS011;46421;48.610;9.334;2024-03-02T06:10:09;7.00;;;2.45;;
60588;SDS011;46421;48.610;9.334;2024-03-02T06:12:34;10.98;;;3.63;;
60588;SDS011;46421;48.610;9.334;2024-03-02T06:15:00;8.67;;;3.33;;
60588;SDS011;46421;48.610;9.334;2024-03-02T06:17:25;8.90;;;2.90;;
60588;SDS011;46421;48.610;9.334;2024-03-02T06:19:51;6.93;;;2.80;;
60588;SDS011;46421;48.610;9.334;2024-03-02T06:22:16;8.47;;;3.17;;
60588;SDS011;46421;48.610;9.334;2024-03-02T06:24:41;7.22;;;3.53;;
60588;SDS011;46421;48.610;9.334;2024-03-02T06:27:07;8.65;;;3.40;;
60588;SDS011;46421;48.610;9.334;2024-03-02T06:29:33;7.68;;;2.42;;
60588;SDS011;46421;48.610;9.334;2024-03-02T06:31:58;6.90;;;2.90;;
60588;SDS011;46421;48.610;9.334;2024-03-02T06:34:24;8.55;;;3.17;;
60588;SDS011;46421;48.610;9.334;2024-03-02T06:36:49;8.07;;;2.93;;
60588;SDS011;46421;48.610;9.334;2024-03-02T06:39:15;8.97;;;3.27;;
60588;SDS011;46421;48.610;9.334;2024-03-02T06:41:40;9.17;;;3.17;;
60588;SDS011;46421;48.610;9.334;2024-03-02T06:44:05;9.63;;;3.55;;
60588;SDS011;46421;48.610;9.334;2024-03-02T06:46:31;9.32;;;3.75;;
60588;SDS011;46421;48.610;9.334;2024-03-02T06:48:57;10.82;;;3.83;;
60588;SDS011;46421;48.610;9.334;2024-03-02T06:51:22;11.00;;;3.85;;
60588;SDS011;46421;48.610;9.334;2024-03-02T06:53:48;9.43;;;3.10;;
60588;SDS011;46421;48.610;9.334;2024-03-02T06:56:13;10.10;;;3.37;;
60588;SDS011;46421;48.610;9.334;2024-03-02T06:58:39;8.43;;;4.22;;
60588;SDS011;46421;48.610;9.334;2024-03-02T07:01:04;12.50;;;3.90;;
60588;SDS011;46421;48.610;9.334;2024-03-02T07:03:30;11.43;;;4.13;;
60588;SDS011;46421;48.610;9.334;2024-03-02T07:05:55;8.17;;;3.70;;
60588;SDS011;46421;48.610;9.334;2024-03-02T07:08:20;10.13;;;3.63;;
60588;SDS011;46421;48.610;9.334;2024-03-02T07:10:46;10.20;;;4.03;;
60588;SDS011;46421;48.610;9.334;2024-03-02T07:13:12;9.63;;;4.43;;
60588;SDS011;46421;48.610;9.334;2024-03-02T07:15:38;10.18;;;3.88;;
60588;SDS011;46421;48.610;9.334;2024-03-02T07:18:22;9.45;;;4.22;;
60588;SDS011;46421;48.610;9.334;2024-03-02T07:20:47;11.43;;;4.10;;
60588;SDS011;46421;48.610;9.334;2024-03-02T07:23:16;9.73;;;3.83;;
60588;SDS011;46421;48.610;9.334;2024-03-02T07:25:42;10.63;;;4.47;;
60588;SDS011;46421;48.610;9.334;2024-03-02T07:28:07;11.48;;;4.07;;
60588;SDS011;46421;48.610;9.334;2024-03-02T07:30:33;11.60;;;4.05;;
60588;SDS011;46421;48.610;9.334;2024-03-02T07:32:58;11.30;;;4.47;;
60588;SDS011;46421;48.610;9.334;2024-03-02T07:35:24;9.23;;;4.22;;
60588;SDS011;46421;48.610;9.334;2024-03-02T07:37:52;11.77;;;4.35;;
60588;SDS011;46421;48.610;9.334;2024-03-02T07:40:18;8.85;;;3.83;;
60588;SDS011;46421;48.610;9.334;2024-03-02T07:42:44;8.90;;;4.20;;
60588;SDS011;46421;48.610;9.334;2024-03-02T07:45:11;7.93;;;3.90;;
60588;SDS011;46421;48.610;9.334;2024-03-02T07:47:36;8.13;;;3.97;;
60588;SDS011;46421;48.610;9.334;2024-03-02T07:50:02;9.10;;;4.72;;
60588;SDS011;46421;48.610;9.334;2024-03-02T07:52:28;7.85;;;3.63;;
60588;SDS011;46421;48.610;9.334;2024-03-02T07:54:53;7.85;;;3.75;;
60588;SDS011;46421;48.610;9.334;2024-03-02T07:57:19;8.80;;;4.47;;
60588;SDS011;46421;48.610;9.334;2024-03-02T07:59:44;8.70;;;3.88;;
60588;SDS011;46421;48.610;9.334;2024-03-02T08:02:10;8.93;;;3.83;;
60588;SDS011;46421;48.610;9.334;2024-03-02T08:04:35;8.35;;;4.60;;
60588;SDS011;46421;48.610;9.334;2024-03-02T08:07:02;7.35;;;3.90;;
60588;SDS011;46421;48.610;9.334;2024-03-02T08:09:27;9.07;;;4.32;;
60588;SDS011;46421;48.610;9.334;2024-03-02T08:11:53;10.88;;;3.72;;
60588;SDS011;46421;48.610;9.334;2024-03-02T08:14:18;8.82;;;4.32;;
60588;SDS011;46421;48.610;9.334;2024-03-02T08:16:44;8.40;;;3.70;;
60588;SDS011;46421;48.610;9.334;2024-03-02T08:19:10;8.32;;;4.40;;
60588;SDS011;46421;48.610;9.334;2024-03-02T08:21:35;6.65;;;3.60;;
60588;SDS011;46421;48.610;9.334;2024-03-02T08:24:01;9.05;;;4.05;;
60588;SDS011;46421;48.610;9.334;2024-03-02T08:26:27;9.50;;;4.18;;
60588;SDS011;46421;48.610;9.334;2024-03-02T08:28:54;8.60;;;3.83;;
60588;SDS011;46421;48.610;9.334;2024-03-02T08:31:20;7.93;;;4.00;;
60588;SDS011;46421;48.610;9.334;2024-03-02T08:33:45;9.20;;;4.10;;
60588;SDS011;46421;48.610;9.334;2024-03-02T08:36:11;11.00;;;4.90;;
60588;SDS011;46421;48.610;9.334;2024-03-02T08:38:36;8.48;;;3.75;;
60588;SDS011;46421;48.610;9.334;2024-03-02T08:41:02;9.85;;;4.15;;
60588;SDS011;46421;48.610;9.334;2024-03-02T08:43:28;7.10;;;3.83;;
60588;SDS011;46421;48.610;9.334;2024-03-02T08:45:54;8.68;;;4.80;;
60588;SDS011;46421;48.610;9.334;2024-03-02T08:48:19;8.73;;;4.47;;
60588;SDS011;46421;48.610;9.334;2024-03-02T08:50:46;11.80;;;5.43;;
60588;SDS011;46421;48.610;9.334;2024-03-02T08:53:11;11.00;;;4.90;;
60588;SDS011;46421;48.610;9.334;2024-03-02T08:55:36;9.82;;;4.78;;
60588;SDS011;46421;48.610;9.334;2024-03-02T08:58:02;9.52;;;4.47;;
60588;SDS011;46421;48.610;9.334;2024-03-02T09:00:28;8.50;;;4.68;;
60588;SDS011;46421;48.610;9.334;2024-03-02T09:02:53;7.68;;;4.18;;
60588;SDS011;46421;48.610;9.334;2024-03-02T09:05:19;8.05;;;4.25;;
60588;SDS011;46421;48.610;9.334;2024-03-02T09:07:44;10.40;;;4.88;;
60588;SDS011;46421;48.610;9.334;2024-03-02T09:10:10;7.53;;;4.32;;
60588;SDS011;46421;48.610;9.334;2024-03-02T09:12:35;9.88;;;5.00;;
60588;SDS011;46421;48.610;9.334;2024-03-02T09:15:01;6.93;;;4.63;;
60588;SDS011;46421;48.610;9.334;2024-03-02T09:17:28;9.57;;;4.30;;
60588;SDS011;46421;48.610;9.334;2024-03-02T09:19:53;8.35;;;4.50;;
60588;SDS011;46421;48.610;9.334;2024-03-02T09:22:19;8.73;;;4.15;;
60588;SDS011;46421;48.610;9.334;2024-03-02T09:24:44;7.07;;;3.97;;
60588;SDS011;46421;48.610;9.334;2024-03-02T09:27:10;7.85;;;4.30;;
60588;SDS011;46421;48.610;9.334;2024-03-02T09:29:36;8.15;;;4.25;;
60588;SDS011;46421;48.610;9.334;2024-03-02T09:32:01;9.10;;;4.47;;
60588;SDS011;46421;48.610;9.334;2024-03-02T09:34:26;8.63;;;4.68;;
60588;SDS011;46421;48.610;9.334;2024-03-02T09:36:52;7.85;;;3.92;;
60588;SDS011;46421;48.610;9.334;2024-03-02T09:39:17;9.90;;;4.55;;
60588;SDS011;46421;48.610;9.334;2024-03-02T09:41:43;10.73;;;4.50;;
60588;SDS011;46421;48.610;9.334;2024-03-02T09:44:09;7.25;;;4.10;;
60588;SDS011;46421;48.610;9.334;2024-03-02T09:46:34;7.28;;;4.60;;
60588;SDS011;46421;48.610;9.334;2024-03-02T09:49:01;6.53;;;3.78;;
60588;SDS011;46421;48.610;9.334;2024-03-02T09:51:27;7.50;;;4.47;;
60588;SDS011;46421;48.610;9.334;2024-03-02T09:53:52;6.88;;;4.50;;
60588;SDS011;46421;48.610;9.334;2024-03-02T09:56:19;9.20;;;4.25;;
60588;SDS011;46421;48.610;9.334;2024-03-02T09:58:46;6.85;;;3.92;;
60588;SDS011;46421;48.610;9.334;2024-03-02T10:01:12;6.28;;;3.47;;
60588;SDS011;46421;48.610;9.334;2024-03-02T10:03:37;6.97;;;3.92;;
60588;SDS011;46421;48.610;9.334;2024-03-02T10:06:21;6.18;;;3.63;;
60588;SDS011;46421;48.610;9.334;2024-03-02T10:08:47;6.63;;;3.50;;
60588;SDS011;46421;48.610;9.334;2024-03-02T10:11:30;6.22;;;4.03;;
60588;SDS011;46421;48.610;9.334;2024-03-02T10:14:03;6.57;;;3.30;;
60588;SDS011;46421;48.610;9.334;2024-03-02T10:16:39;6.40;;;4.13;;
60588;SDS011;46421;48.610;9.334;2024-03-02T10:19:15;6.13;;;4.03;;
60588;SDS011;46421;48.610;9.334;2024-03-02T10:21:42;5.88;;;3.42;;
60588;SDS011;46421;48.610;9.334;2024-03-02T10:24:08;5.60;;;3.20;;
60588;SDS011;46421;48.610;9.334;2024-03-02T10:26:33;6.95;;;3.90;;
60588;SDS011;46421;48.610;9.334;2024-03-02T10:28:59;6.20;;;3.65;;
60588;SDS011;46421;48.610;9.334;2024-03-02T10:31:25;5.20;;;2.80;;
60588;SDS011;46421;48.610;9.334;2024-03-02T10:33:54;5.70;;;3.13;;
60588;SDS011;46421;48.610;9.334;2024-03-02T10:36:19;5.28;;;2.80;;
60588;SDS011;46421;48.610;9.334;2024-03-02T10:38:45;6.13;;;3.20;;
60588;SDS011;46421;48.610;9.334;2024-03-02T10:41:15;6.95;;;3.53;;
60588;SDS011;46421;48.610;9.334;2024-03-02T10:43:42;4.97;;;3.20;;
60588;SDS011;46421;48.610;9.334;2024-03-02T10:46:08;6.65;;;3.25;;
60588;SDS011;46421;48.610;9.334;2024-03-02T10:48:33;5.07;;;2.78;;
60588;SDS011;46421;48.610;9.334;2024-03-02T10:51:00;6.85;;;3.05;;
60588;SDS011;46421;48.610;9.334;2024-03-02T10:53:27;6.07;;;3.08;;
60588;SDS011;46421;48.610;9.334;2024-03-02T10:55:53;4.97;;;2.85;;
60588;SDS011;46421;48.610;9.334;2024-03-02T10:58:21;6.72;;;2.90;;
60588;SDS011;46421;48.610;9.334;2024-03-02T11:00:47;5.85;;;2.78;;
60588;SDS011;46421;48.610;9.334;2024-03-02T11:03:12;7.30;;;3.40;;
60588;SDS011;46421;48.610;9.334;2024-03-02T11:05:39;6.65;;;3.38;;
60588;SDS011;46421;48.610;9.334;2024-03-02T11:08:06;6.55;;;3.28;;
60588;SDS011;46421;48.610;9.334;2024-03-02T11:10:48;5.45;;;3.05;;
60588;SDS011;46421;48.610;9.334;2024-03-02T11:13:26;7.47;;;3.22;;
60588;SDS011;46421;48.610;9.334;2024-03-02T11:15:55;7.40;;;3.35;;
60588;SDS011;46421;48.610;9.334;2024-03-02T11:18:21;8.48;;;3.38;;
60588;SDS011;46421;48.610;9.334;2024-03-02T11:20:46;5.57;;;3.53;;
60588;SDS011;46421;48.610;9.334;2024-03-02T11:23:12;5.25;;;2.88;;
60588;SDS011;46421;48.610;9.334;2024-03-02T11:25:38;5.45;;;2.50;;
60588;SDS011;46421;48.610;9.334;2024-03-02T11:28:07;4.70;;;2.50;;
60588;SDS011;46421;48.610;9.334;2024-03-02T11:33:08;4.70;;;2.47;;
60588;SDS011;46421;48.610;9.334;2024-03-02T11:35:34;4.38;;;2.55;;
60588;SDS011;46421;48.610;9.334;2024-03-02T11:38:00;3.75;;;2.35;;
60588;SDS011;46421;48.610;9.334;2024-03-02T11:40:26;3.97;;;2.10;;
60588;SDS011;46421;48.610;9.334;2024-03-02T11:42:52;5.40;;;2.47;;
60588;SDS011;46421;48.610;9.334;2024-03-02T11:45:22;4.00;;;1.80;;
60588;SDS011;46421;48.610;9.334;2024-03-02T11:47:51;3.10;;;1.70;;
60588;SDS011;46421;48.610;9.334;2024-03-02T11:50:34;3.47;;;1.83;;
60588;SDS011;46421;48.610;9.334;2024-03-02T11:53:06;4.78;;;1.73;;
60588;SDS011;46421;48.610;9.334;2024-03-02T11:55:36;3.33;;;1.75;;
60588;SDS011;46421;48.610;9.334;2024-03-02T11:58:02;4.30;;;1.40;;
60588;SDS011;46421;48.610;9.334;2024-03-02T12:00:28;3.35;;;1.50;;
60588;SDS011;46421;48.610;9.334;2024-03-02T12:03:01;3.08;;;1.33;;
60588;SDS011;46421;48.610;9.334;2024-03-02T12:05:27;3.53;;;1.30;;
60588;SDS011;46421;48.610;9.334;2024-03-02T12:07:56;2.17;;;0.98;;
60588;SDS011;46421;48.610;9.334;2024-03-02T12:10:25;3.50;;;1.20;;
60588;SDS011;46421;48.610;9.334;2024-03-02T12:12:58;2.90;;;1.25;;
60588;SDS011;46421;48.610;9.334;2024-03-02T12:15:25;3.92;;;1.17;;
60588;SDS011;46421;48.610;9.334;2024-03-02T12:17:52;2.20;;;1.05;;
60588;SDS011;46421;48.610;9.334;2024-03-02T12:20:19;2.42;;;1.10;;
60588;SDS011;46421;48.610;9.334;2024-03-02T12:22:44;2.35;;;1.05;;
60588;SDS011;46421;48.610;9.334;2024-03-02T12:25:11;5.25;;;1.00;;
60588;SDS011;46421;48.610;9.334;2024-03-02T12:27:36;1.90;;;1.00;;
60588;SDS011;46421;48.610;9.334;2024-03-02T12:30:02;2.38;;;0.90;;
60588;SDS011;46421;48.610;9.334;2024-03-02T12:32:29;2.15;;;1.10;;
60588;SDS011;46421;48.610;9.334;2024-03-02T12:34:55;3.00;;;1.10;;
60588;SDS011;46421;48.610;9.334;2024-03-02T12:37:20;1.80;;;1.00;;
60588;SDS011;46421;48.610;9.334;2024-03-02T12:39:45;2.65;;;1.00;;
60588;SDS011;46421;48.610;9.334;2024-03-02T12:42:11;1.95;;;0.98;;
60588;SDS011;46421;48.610;9.334;2024-03-02T12:44:37;1.73;;;0.90;;
60588;SDS011;46421;48.610;9.334;2024-03-02T12:49:28;2.95;;;1.10;;
60588;SDS011;46421;48.610;9.334;2024-03-02T12:51:55;2.85;;;1.33;;
60588;SDS011;46421;48.610;9.334;2024-03-02T12:54:22;1.77;;;0.73;;
60588;SDS011;46421;48.610;9.334;2024-03-02T12:56:48;2.08;;;0.77;;
60588;SDS011;46421;48.610;9.334;2024-03-02T12:59:21;1.85;;;0.70;;
60588;SDS011;46421;48.610;9.334;2024-03-02T13:01:54;1.98;;;0.63;;
60588;SDS011;46421;48.610;9.334;2024-03-02T13:04:24;1.88;;;0.82;;
60588;SDS011;46421;48.610;9.334;2024-03-02T13:06:51;1.52;;;0.63;;
60588;SDS011;46421;48.610;9.334;2024-03-02T13:11:42;1.63;;;0.60;;
60588;SDS011;46421;48.610;9.334;2024-03-02T13:14:08;1.35;;;0.60;;
60588;SDS011;46421;48.610;9.334;2024-03-02T13:16:39;1.92;;;0.80;;
60588;SDS011;46421;48.610;9.334;2024-03-02T13:19:07;1.20;;;0.68;;
60588;SDS011;46421;48.610;9.334;2024-03-02T13:21:33;2.05;;;0.80;;
60588;SDS011;46421;48.610;9.334;2024-03-02T13:23:58;1.27;;;0.50;;
60588;SDS011;46421;48.610;9.334;2024-03-02T13:26:24;2.03;;;0.80;;
60588;SDS011;46421;48.610;9.334;2024-03-02T13:28:49;1.52;;;0.65;;
60588;SDS011;46421;48.610;9.334;2024-03-02T13:31:15;2.90;;;0.65;;
60588;SDS011;46421;48.610;9.334;2024-03-02T13:33:40;1.42;;;0.60;;
60588;SDS011;46421;48.610;9.334;2024-03-02T13:36:05;0.73;;;0.40;;
60588;SDS011;46421;48.610;9.334;2024-03-02T13:38:31;1.65;;;0.50;;
60588;SDS011;46421;48.610;9.334;2024-03-02T13:40:56;1.55;;;0.60;;
60588;SDS011;46421;48.610;9.334;2024-03-02T13:43:22;3.42;;;0.63;;
60588;SDS011;46421;48.610;9.334;2024-03-02T13:45:49;1.77;;;0.70;;
60588;SDS011;46421;48.610;9.334;2024-03-02T13:48:14;1.42;;;0.60;;
60588;SDS011;46421;48.610;9.334;2024-03-02T13:50:39;2.05;;;0.70;;
60588;SDS011;46421;48.610;9.334;2024-03-02T13:53:05;0.63;;;0.50;;
60588;SDS011;46421;48.610;9.334;2024-03-02T13:55:32;1.63;;;0.60;;
60588;SDS011;46421;48.610;9.334;2024-03-02T13:57:58;1.23;;;0.50;;
60588;SDS011;46421;48.610;9.334;2024-03-02T14:00:23;0.85;;;0.55;;
60588;SDS011;46421;48.610;9.334;2024-03-02T14:02:49;1.88;;;0.60;;
60588;SDS011;46421;48.610;9.334;2024-03-02T14:05:15;1.58;;;0.60;;
60588;SDS011;46421;48.610;9.334;2024-03-02T14:07:41;1.73;;;0.50;;
60588;SDS011;46421;48.610;9.334;2024-03-02T14:10:07;0.75;;;0.50;;
60588;SDS011;46421;48.610;9.334;2024-03-02T14:12:33;1.05;;;0.30;;
60588;SDS011;46421;48.610;9.334;2024-03-02T14:14:58;0.70;;;0.40;;
60588;SDS011;46421;48.610;9.334;2024-03-02T14:17:27;1.90;;;0.70;;
60588;SDS011;46421;48.610;9.334;2024-03-02T14:19:52;1.20;;;0.60;;
60588;SDS011;46421;48.610;9.334;2024-03-02T14:22:18;2.25;;;0.50;;
60588;SDS011;46421;48.610;9.334;2024-03-02T14:24:44;2.10;;;0.52;;
60588;SDS011;46421;48.610;9.334;2024-03-02T14:27:10;0.77;;;0.45;;
60588;SDS011;46421;48.610;9.334;2024-03-02T14:29:35;2.05;;;0.80;;
60588;SDS011;46421;48.610;9.334;2024-03-02T14:32:03;2.38;;;0.70;;
60588;SDS011;46421;48.610;9.334;2024-03-02T14:34:28;1.67;;;0.70;;
60588;SDS011;46421;48.610;9.334;2024-03-02T14:36:54;1.58;;;0.60;;
60588;SDS011;46421;48.610;9.334;2024-03-02T14:39:19;1.55;;;0.70;;
60588;SDS011;46421;48.610;9.334;2024-03-02T14:41:45;1.80;;;0.60;;
60588;SDS011;46421;48.610;9.334;2024-03-02T14:44:10;1.08;;;0.40;;
60588;SDS011;46421;48.610;9.334;2024-03-02T14:46:35;1.17;;;0.45;;
60588;SDS011;46421;48.610;9.334;2024-03-02T14:49:01;1.88;;;0.60;;
60588;SDS011;46421;48.610;9.334;2024-03-02T14:51:27;2.55;;;0.80;;